Terminal Aerodrome Forecast
Issued by NWS Pittsburgh, PA

Current Version | Previous Version | Text Only | Print | Product List | Glossary Off
Versions: 1 2 3 4 5 6 7 8 9 10 11 12 13 14 15 16 17 18 19 20 21 22 23 24 25 26 27

000
FTUS41 KPBZ 241400 AAA
TAFPIT
TAF AMD
KPIT 241457Z 2415/2518 13006KT P6SM BKN035 BKN050 WS015/19035KT
     FM242100 17010KT P6SM BKN035 WS015/19040KT
     FM250100 22020G35KT P6SM -SHRA BKN035 PROB30 2501/2502
      23020G45KT -TSRA BKN020CB
     FM250300 25017G25KT P6SM VCSH OVC035 PROB30 2503/2506 -RA
      BKN025
     FM250600 24014G22KT P6SM BKN040=

USA.gov is the U.S. government's official web portal to all federal, state and local government web resources and services.